Time;durP1;ratioP1;P1;durP2;ratioP2;P2;SDS_P1;SDS_P2;PMS_P1;PMS_P2;Temp;Humidity;BMP_temperature;BMP_pressure;BME280_temperature;BME280_humidity;BME280_pressure;Samples;Min_cycle;Max_cycle;Signal;HPM_P1;HPM_P2
2023/05/02 00:00:07;;;;;;;11.18;4.30;;;;;;;9.59;100.00;101169.13;5038914;28;20033;-77
2023/05/02 00:02:33;;;;;;;12.02;4.30;;;;;;;9.60;100.00;101168.00;5075778;28;20056;-77
2023/05/02 00:04:58;;;;;;;10.95;4.53;;;;;;;9.60;100.00;101168.00;5023806;28;20029;-77
2023/05/02 00:07:25;;;;;;;17.42;4.43;;;;;;;9.57;100.00;101165.75;5039535;28;20032;-77
2023/05/02 00:09:51;;;;;;;9.73;4.18;;;;;;;9.59;100.00;101159.97;5041441;28;20033;-76
2023/05/02 00:12:16;;;;;;;21.17;6.30;;;;;;;9.58;100.00;101161.06;5057924;28;20472;-77
2023/05/02 00:14:41;;;;;;;13.70;5.20;;;;;;;9.55;100.00;101165.19;5057851;28;20020;-77
2023/05/02 00:17:07;;;;;;;13.40;5.40;;;;;;;9.59;100.00;101163.56;5013836;28;20038;-77
2023/05/02 00:19:37;;;;;;;14.82;5.75;;;;;;;9.61;100.00;101163.28;5020137;28;20393;-77
2023/05/02 00:22:03;;;;;;;25.50;6.88;;;;;;;9.68;100.00;101157.50;5021644;28;20056;-77
2023/05/02 00:24:28;;;;;;;13.18;5.75;;;;;;;9.72;100.00;101158.59;5036404;28;20466;-77
2023/05/02 00:26:53;;;;;;;21.70;8.30;;;;;;;9.70;100.00;101158.88;5074243;28;20040;-77
2023/05/02 00:29:19;;;;;;;22.92;6.43;;;;;;;9.73;100.00;101166.66;5074404;28;20389;-77
2023/05/02 00:31:45;;;;;;;16.10;6.05;;;;;;;9.83;100.00;101165.84;5056112;28;20094;-77
2023/05/02 00:34:10;;;;;;;15.57;5.90;;;;;;;9.91;100.00;101167.25;5077594;28;20531;-77
2023/05/02 00:36:36;;;;;;;19.73;6.45;;;;;;;9.94;100.00;101167.53;5057815;28;20040;-77
2023/05/02 00:39:01;;;;;;;14.57;5.40;;;;;;;9.99;100.00;101159.22;5059866;28;20400;-77
2023/05/02 00:41:27;;;;;;;15.75;5.80;;;;;;;10.10;100.00;101164.81;5077793;28;20035;-77
2023/05/02 00:43:52;;;;;;;20.83;5.82;;;;;;;10.12;100.00;101163.44;5057993;28;20021;-77
2023/05/02 00:46:18;;;;;;;18.13;5.78;;;;;;;10.18;100.00;101158.72;5069090;28;20473;-77
2023/05/02 00:48:44;;;;;;;16.98;5.60;;;;;;;10.22;100.00;101169.00;5077280;28;20035;-77
2023/05/02 00:51:11;;;;;;;17.17;5.57;;;;;;;10.29;100.00;101174.31;5024936;28;20025;-77
2023/05/02 00:53:36;;;;;;;16.92;5.22;;;;;;;10.39;100.00;101160.44;5071971;28;20021;-78
2023/05/02 00:56:02;;;;;;;17.73;5.32;;;;;;;10.38;100.00;101163.47;5040844;28;20032;-77
2023/05/02 00:58:27;;;;;;;20.48;5.68;;;;;;;10.39;100.00;101162.38;5037741;28;20059;-77
2023/05/02 01:00:59;;;;;;;12.60;5.25;;;;;;;10.41;100.00;101158.19;5031458;28;20565;-78
2023/05/02 01:03:43;;;;;;;19.05;7.05;;;;;;;10.45;100.00;101167.66;5077489;28;20497;-78
2023/05/02 01:06:42;;;;;;;21.40;6.53;;;;;;;10.50;100.00;101164.03;5078451;28;20020;-78
2023/05/02 01:09:26;;;;;;;21.63;6.10;;;;;;;10.54;100.00;101169.88;5057434;28;20037;-77
2023/05/02 01:12:10;;;;;;;16.65;6.13;;;;;;;10.54;100.00;101172.66;5040489;28;20115;-77
2023/05/02 01:14:41;;;;;;;19.30;8.18;;;;;;;10.50;100.00;101170.44;5053860;28;20087;-77
2023/05/02 01:17:08;;;;;;;19.45;6.78;;;;;;;10.52;100.00;101168.19;5068218;28;20366;-77
2023/05/02 01:19:39;;;;;;;23.70;8.85;;;;;;;10.52;100.00;101168.19;5076397;28;20033;-77
2023/05/02 01:22:06;;;;;;;18.45;7.43;;;;;;;10.52;100.00;101173.75;5078348;28;20551;-78
2023/05/02 01:24:40;;;;;;;15.88;6.57;;;;;;;10.55;100.00;101172.38;5060719;28;20043;-77
2023/05/02 01:27:09;;;;;;;14.60;6.63;;;;;;;10.58;100.00;101170.97;5031481;28;20546;-77
2023/05/02 01:29:34;;;;;;;18.95;8.07;;;;;;;10.58;100.00;101179.31;5065339;28;20035;-77
2023/05/02 01:32:00;;;;;;;21.23;7.70;;;;;;;10.54;100.00;101178.22;5024336;28;20025;-77
2023/05/02 01:34:25;;;;;;;18.67;7.68;;;;;;;10.50;100.00;101164.88;5040655;28;20025;-78
2023/05/02 01:36:51;;;;;;;15.55;7.68;;;;;;;10.49;100.00;101163.19;5060098;28;20044;-77
2023/05/02 01:39:20;;;;;;;17.40;7.90;;;;;;;10.54;100.00;101158.78;5077007;28;20031;-78
2023/05/02 01:41:48;;;;;;;22.23;9.18;;;;;;;10.47;100.00;101159.88;5076384;28;20025;-78
2023/05/02 01:44:13;;;;;;;24.67;9.82;;;;;;;10.43;100.00;101157.94;5076009;28;20032;-78
2023/05/02 01:46:39;;;;;;;18.88;8.48;;;;;;;10.42;100.00;101162.66;5074501;28;20017;-77
2023/05/02 01:49:05;;;;;;;23.05;9.15;;;;;;;10.40;100.00;101159.31;5035523;28;20035;-78
2023/05/02 01:51:33;;;;;;;22.63;8.25;;;;;;;10.38;100.00;101163.47;5071398;28;20033;-77
2023/05/02 01:54:00;;;;;;;22.77;8.45;;;;;;;10.44;100.00;101163.19;5057968;28;20098;-78
2023/05/02 01:56:25;;;;;;;22.88;8.90;;;;;;;10.42;100.00;101159.03;5059736;28;20028;-78
2023/05/02 01:58:51;;;;;;;23.15;7.68;;;;;;;10.45;100.00;101162.09;5036389;28;20370;-78
2023/05/02 02:01:17;;;;;;;17.15;7.10;;;;;;;10.48;100.00;101171.81;5069931;28;20045;-77
2023/05/02 02:03:42;;;;;;;25.50;9.23;;;;;;;10.45;100.00;101177.94;5060086;28;20029;-78
2023/05/02 02:06:08;;;;;;;20.10;7.35;;;;;;;10.51;100.00;101165.72;5076041;28;20040;-77
2023/05/02 02:08:34;;;;;;;14.98;6.25;;;;;;;10.53;100.00;101169.06;5039650;28;20033;-77
2023/05/02 02:11:00;;;;;;;15.98;5.72;;;;;;;10.58;100.00;101166.25;5053264;28;20028;-77
2023/05/02 02:13:29;;;;;;;16.33;6.13;;;;;;;10.57;100.00;101167.38;5056064;28;20029;-78
2023/05/02 02:15:58;;;;;;;16.45;6.80;;;;;;;10.60;100.00;101163.22;5008040;28;20033;-77
2023/05/02 02:18:25;;;;;;;18.17;7.25;;;;;;;10.61;100.00;101162.09;5075315;28;20031;-77
2023/05/02 02:20:51;;;;;;;17.35;7.22;;;;;;;10.61;100.00;101164.88;5059232;28;20017;-77
2023/05/02 02:23:16;;;;;;;15.52;6.53;;;;;;;10.63;100.00;101165.44;5034841;28;20410;-77
2023/05/02 02:25:42;;;;;;;15.82;7.18;;;;;;;10.63;100.00;101177.38;5071892;28;20483;-77
2023/05/02 02:28:08;;;;;;;17.90;8.13;;;;;;;10.61;100.00;101178.75;5059229;28;20028;-78
2023/05/02 02:30:33;;;;;;;18.48;8.05;;;;;;;10.53;100.00;101180.16;5075791;28;20031;-78
2023/05/02 02:32:59;;;;;;;15.35;7.20;;;;;;;10.52;100.00;101186.81;5059238;28;20032;-78
2023/05/02 02:35:27;;;;;;;16.02;6.65;;;;;;;10.55;100.00;101189.03;5058803;28;20477;-77
2023/05/02 02:38:04;;;;;;;13.35;6.70;;;;;;;10.53;100.00;101188.50;5059532;28;20035;-78
2023/05/02 02:40:31;;;;;;;13.25;5.95;;;;;;;10.56;100.00;101185.16;5042287;28;20507;-78
2023/05/02 02:43:20;;;;;;;12.88;5.75;;;;;;;10.59;100.00;101186.56;5042355;28;20040;-77
2023/05/02 02:46:14;;;;;;;13.05;5.78;;;;;;;10.62;100.00;101197.09;5059214;28;20032;-77
2023/05/02 02:49:08;;;;;;;11.73;5.53;;;;;;;10.60;100.00;101199.31;5075189;28;20055;-77
2023/05/02 02:51:43;;;;;;;13.00;5.78;;;;;;;10.60;100.00;101202.09;5076151;28;20094;-77
2023/05/02 02:54:19;;;;;;;10.77;5.85;;;;;;;10.61;100.00;101200.97;5066747;28;20032;-78
2023/05/02 02:56:45;;;;;;;14.13;5.68;;;;;;;10.62;100.00;101192.38;5071759;28;20070;-77
2023/05/02 02:59:26;;;;;;;13.15;6.15;;;;;;;10.62;100.00;101199.88;5058678;28;20032;-77
2023/05/02 03:02:01;;;;;;;9.55;5.30;;;;;;;10.60;100.00;101202.09;5074896;28;20497;-77
2023/05/02 03:04:28;;;;;;;13.07;5.88;;;;;;;10.58;100.00;101193.19;5075276;28;20127;-78
2023/05/02 03:06:54;;;;;;;13.75;5.65;;;;;;;10.57;100.00;101191.53;5066964;28;20029;-78
2023/05/02 03:09:19;;;;;;;13.43;6.47;;;;;;;10.54;100.00;101194.88;5032463;28;20393;-78
2023/05/02 03:11:45;;;;;;;18.92;7.22;;;;;;;10.47;100.00;101193.22;5038313;28;20026;-78
2023/05/02 03:14:11;;;;;;;17.10;7.63;;;;;;;10.44;100.00;101193.75;5068997;28;20032;-77
2023/05/02 03:16:39;;;;;;;11.93;5.65;;;;;;;10.45;100.00;101198.22;5038493;28;20042;-77
2023/05/02 03:19:05;;;;;;;16.50;5.70;;;;;;;10.46;100.00;101197.09;5070938;28;20039;-77
2023/05/02 03:21:31;;;;;;;10.63;4.97;;;;;;;10.45;100.00;101200.16;5075051;28;20032;-77
2023/05/02 03:24:00;;;;;;;13.45;5.57;;;;;;;10.48;100.00;101203.19;5074849;28;20036;-78
2023/05/02 03:26:26;;;;;;;9.23;5.63;;;;;;;10.49;100.00;101201.25;5074952;28;20432;-77
2023/05/02 03:28:52;;;;;;;13.65;5.55;;;;;;;10.48;100.00;101200.44;5075014;28;20083;-77
2023/05/02 03:31:18;;;;;;;12.63;5.43;;;;;;;10.46;100.00;101204.59;5058695;28;20473;-77
2023/05/02 03:33:43;;;;;;;14.73;4.90;;;;;;;10.44;100.00;101209.56;5058200;28;20055;-77
2023/05/02 03:36:08;;;;;;;12.07;4.95;;;;;;;10.43;100.00;101213.47;5058202;28;20033;-77
2023/05/02 03:38:34;;;;;;;10.02;5.00;;;;;;;10.42;100.00;101209.88;5025338;28;20469;-78
2023/05/02 03:41:00;;;;;;;8.70;5.13;;;;;;;10.45;100.00;101217.66;5074766;28;20393;-77
2023/05/02 03:43:25;;;;;;;8.95;4.85;;;;;;;10.45;100.00;101214.88;5075077;28;20036;-77
2023/05/02 03:45:50;;;;;;;12.82;5.15;;;;;;;10.44;100.00;101215.97;5058135;28;20033;-78
2023/05/02 03:48:16;;;;;;;12.25;5.40;;;;;;;10.41;100.00;101210.13;5028258;28;20025;-77
2023/05/02 03:50:42;;;;;;;11.85;5.25;;;;;;;10.43;100.00;101214.31;5074790;28;20031;-78
2023/05/02 03:53:08;;;;;;;11.85;5.65;;;;;;;10.43;100.00;101210.69;5075880;28;20082;-77
2023/05/02 03:55:38;;;;;;;11.43;5.55;;;;;;;10.41;100.00;101210.97;5073889;28;20508;-77
2023/05/02 03:58:04;;;;;;;10.38;5.40;;;;;;;10.41;100.00;101208.19;5076048;28;20028;-78
2023/05/02 04:00:30;;;;;;;13.88;5.18;;;;;;;10.42;100.00;101215.41;5041300;28;20039;-77
2023/05/02 04:02:56;;;;;;;11.82;4.93;;;;;;;10.44;100.00;101209.56;5055592;28;20045;-78
2023/05/02 04:05:21;;;;;;;10.63;4.82;;;;;;;10.42;100.00;101207.09;5073474;28;20448;-77
2023/05/02 04:07:47;;;;;;;9.68;4.80;;;;;;;10.43;100.00;101214.31;5061381;28;20020;-77
2023/05/02 04:10:15;;;;;;;10.50;4.75;;;;;;;10.40;100.00;101206.53;5037350;28;20083;-77
2023/05/02 04:12:42;;;;;;;15.15;5.28;;;;;;;10.41;100.00;101210.97;5055084;28;20467;-77
2023/05/02 04:15:08;;;;;;;8.80;5.47;;;;;;;10.44;100.00;101204.03;5045503;28;20366;-77
2023/05/02 04:17:34;;;;;;;11.93;5.07;;;;;;;10.43;100.00;101203.19;5062158;28;20040;-77
2023/05/02 04:19:59;;;;;;;9.23;4.63;;;;;;;10.42;100.00;101197.91;5061752;28;20032;-78
2023/05/02 04:22:24;;;;;;;11.77;4.60;;;;;;;10.42;100.00;101197.91;5061465;28;20028;-77
2023/05/02 04:24:50;;;;;;;11.27;4.72;;;;;;;10.41;100.00;101205.41;5079313;28;20035;-77
2023/05/02 04:27:15;;;;;;;10.50;5.10;;;;;;;10.42;100.00;101209.88;5078135;28;20040;-77
2023/05/02 04:29:41;;;;;;;13.55;5.93;;;;;;;10.41;100.00;101205.41;5041455;28;20051;-77
2023/05/02 04:32:06;;;;;;;10.77;5.10;;;;;;;10.38;100.00;101205.97;5057253;28;20020;-78
2023/05/02 04:34:32;;;;;;;8.88;4.93;;;;;;;10.36;100.00;101208.16;5061576;28;20563;-78
2023/05/02 04:36:57;;;;;;;9.38;5.15;;;;;;;10.37;100.00;101209.03;5061393;28;20093;-78
2023/05/02 04:39:23;;;;;;;11.70;4.82;;;;;;;10.35;100.00;101200.97;5079521;28;20097;-77
2023/05/02 04:41:48;;;;;;;9.18;4.95;;;;;;;10.33;100.00;101203.19;5060936;28;20056;-78
2023/05/02 04:44:13;;;;;;;12.23;5.40;;;;;;;10.33;100.00;101205.13;5077978;28;20024;-78
2023/05/02 04:46:39;;;;;;;14.65;5.13;;;;;;;10.35;100.00;101198.19;5061387;28;20024;-78
2023/05/02 04:49:04;;;;;;;11.25;5.13;;;;;;;10.36;100.00;101207.34;5058106;28;20389;-78
2023/05/02 04:51:30;;;;;;;9.77;4.32;;;;;;;10.35;100.00;101209.28;5040474;28;20036;-78
2023/05/02 04:53:56;;;;;;;10.07;5.70;;;;;;;10.34;100.00;101209.59;5075499;28;20472;-78
2023/05/02 04:56:21;;;;;;;15.57;6.93;;;;;;;10.34;100.00;101213.19;5078678;28;20047;-77
2023/05/02 04:58:47;;;;;;;10.95;5.10;;;;;;;10.34;100.00;101210.41;5077630;28;20020;-78
2023/05/02 05:01:12;;;;;;;12.45;5.47;;;;;;;10.32;100.00;101218.19;5043864;28;20051;-78
2023/05/02 05:03:38;;;;;;;12.68;5.10;;;;;;;10.34;100.00;101221.53;5077665;28;20033;-78
2023/05/02 05:06:03;;;;;;;11.13;5.05;;;;;;;10.34;100.00;101227.06;5060799;28;20040;-77
2023/05/02 05:08:29;;;;;;;12.75;6.40;;;;;;;10.31;100.00;101224.84;5060841;28;20047;-78
2023/05/02 05:10:54;;;;;;;13.65;6.80;;;;;;;10.33;100.00;101230.94;5077236;28;20028;-78
2023/05/02 05:13:19;;;;;;;11.80;6.20;;;;;;;10.35;100.00;101234.28;5078589;28;20027;-77
2023/05/02 05:15:46;;;;;;;12.90;6.00;;;;;;;10.33;100.00;101225.38;5024676;28;20036;-78
2023/05/02 05:18:12;;;;;;;11.15;4.95;;;;;;;10.33;100.00;101230.09;5059444;28;20443;-78
2023/05/02 05:20:37;;;;;;;12.95;5.50;;;;;;;10.34;100.00;101227.06;5077131;28;20027;-78
2023/05/02 05:23:03;;;;;;;13.70;6.13;;;;;;;10.36;100.00;101232.34;5077544;28;20404;-78
2023/05/02 05:25:28;;;;;;;10.75;5.13;;;;;;;10.38;100.00;101232.91;5078051;28;20032;-77
2023/05/02 05:27:55;;;;;;;12.18;5.82;;;;;;;10.37;100.00;101232.06;5077482;28;20036;-78
2023/05/02 05:30:20;;;;;;;10.82;5.07;;;;;;;10.37;100.00;101239.56;5078274;28;20032;-77
2023/05/02 05:32:46;;;;;;;12.77;5.57;;;;;;;10.40;100.00;101234.28;5077259;28;20025;-77
2023/05/02 05:35:12;;;;;;;14.15;6.00;;;;;;;10.42;100.00;101247.88;5076887;28;20035;-77
2023/05/02 05:37:38;;;;;;;11.10;5.53;;;;;;;10.45;100.00;101234.31;5060223;28;20389;-78
2023/05/02 05:40:06;;;;;;;11.57;5.38;;;;;;;10.48;100.00;101239.31;5060247;28;20028;-77
2023/05/02 05:42:31;;;;;;;11.02;5.40;;;;;;;10.47;100.00;101240.44;5043885;28;20036;-78
2023/05/02 05:44:57;;;;;;;10.57;5.55;;;;;;;10.50;100.00;101237.09;5030112;28;20094;-78
2023/05/02 05:47:22;;;;;;;13.02;7.03;;;;;;;10.49;100.00;101238.19;5075984;28;20476;-78
2023/05/02 05:49:54;;;;;;;15.10;6.10;;;;;;;10.52;100.00;101243.19;5028518;28;20373;-78
2023/05/02 05:52:20;;;;;;;16.73;5.72;;;;;;;10.55;100.00;101246.53;5067192;28;20525;-78
2023/05/02 05:54:45;;;;;;;11.30;5.88;;;;;;;10.57;100.00;101247.09;5057322;28;20047;-78
2023/05/02 05:57:11;;;;;;;11.48;6.30;;;;;;;10.58;100.00;101243.19;5076626;28;20541;-77
2023/05/02 05:59:36;;;;;;;14.18;7.47;;;;;;;10.58;100.00;101248.75;5077765;28;20028;-78
2023/05/02 06:02:02;;;;;;;11.77;6.68;;;;;;;10.58;100.00;101254.31;5059416;28;20041;-78
2023/05/02 06:04:28;;;;;;;11.88;6.13;;;;;;;10.59;100.00;101256.81;5076483;28;20032;-77
2023/05/02 06:06:54;;;;;;;15.48;6.82;;;;;;;10.63;100.00;101262.66;5019753;28;20069;-77
2023/05/02 06:09:19;;;;;;;11.60;6.18;;;;;;;10.64;100.00;101254.06;5070811;28;20036;-77
2023/05/02 06:11:44;;;;;;;16.17;7.10;;;;;;;10.67;100.00;101261.84;5076074;28;20054;-77
2023/05/02 06:14:10;;;;;;;15.88;7.75;;;;;;;10.70;100.00;101263.22;5043173;28;20021;-78
2023/05/02 06:16:35;;;;;;;16.35;7.75;;;;;;;10.73;100.00;101268.22;5062926;28;20032;-78
2023/05/02 06:19:01;;;;;;;11.05;6.57;;;;;;;10.76;100.00;101270.44;5046184;28;20044;-78
2023/05/02 06:21:26;;;;;;;11.90;6.15;;;;;;;10.79;100.00;101271.84;5076263;28;20350;-78
2023/05/02 06:23:52;;;;;;;11.50;6.40;;;;;;;10.83;100.00;101273.78;5077241;28;20051;-78
2023/05/02 06:26:18;;;;;;;11.50;6.72;;;;;;;10.86;100.00;101280.72;5075705;28;20029;-78
2023/05/02 06:28:43;;;;;;;14.77;6.30;;;;;;;10.90;100.00;101279.91;5075662;28;20036;-77
2023/05/02 06:31:09;;;;;;;14.80;6.25;;;;;;;10.94;100.00;101272.66;5075868;28;20656;-78
2023/05/02 06:33:35;;;;;;;11.68;5.90;;;;;;;11.01;100.00;101282.69;5042871;28;20029;-78
2023/05/02 06:36:01;;;;;;;11.23;6.00;;;;;;;11.05;100.00;101281.84;5029865;28;20068;-78
2023/05/02 06:38:26;;;;;;;11.27;5.25;;;;;;;11.09;100.00;101282.97;5059116;28;20115;-78
2023/05/02 06:40:52;;;;;;;10.15;5.70;;;;;;;11.17;100.00;101295.44;5076759;28;20028;-78
2023/05/02 06:43:17;;;;;;;10.95;5.93;;;;;;;11.21;100.00;101287.41;5058910;28;20435;-78
2023/05/02 06:45:43;;;;;;;14.90;6.85;;;;;;;11.27;100.00;101295.44;5075709;28;20071;-78
2023/05/02 06:48:08;;;;;;;10.93;5.85;;;;;;;11.32;100.00;101298.22;5058945;28;20025;-78
2023/05/02 06:50:34;;;;;;;13.88;7.57;;;;;;;11.37;100.00;101300.19;5038816;28;20064;-78
2023/05/02 06:52:59;;;;;;;13.82;6.97;;;;;;;11.43;100.00;101303.78;5068943;28;20028;-78
2023/05/02 06:55:25;;;;;;;12.23;6.97;;;;;;;11.44;100.00;101295.13;5041651;28;20028;-78
2023/05/02 06:57:51;;;;;;;13.13;6.68;;;;;;;11.49;100.00;101291.53;5022647;28;20087;-78
2023/05/02 07:00:16;;;;;;;15.65;7.82;;;;;;;11.49;100.00;101286.78;5023778;28;20546;-78
2023/05/02 07:02:46;;;;;;;11.50;6.70;;;;;;;11.54;100.00;101288.75;5058769;28;20040;-78
2023/05/02 07:05:12;;;;;;;15.30;6.65;;;;;;;11.63;100.00;101292.59;5057871;28;20036;-78
2023/05/02 07:07:38;;;;;;;11.52;6.28;;;;;;;11.71;100.00;101288.41;5058566;28;20385;-78
2023/05/02 07:10:03;;;;;;;11.75;6.55;;;;;;;11.80;100.00;101287.53;5028204;28;20036;-78
2023/05/02 07:12:29;;;;;;;9.25;5.18;;;;;;;11.92;100.00;101290.03;5074974;28;20033;-78
2023/05/02 07:14:54;;;;;;;7.40;4.63;;;;;;;12.11;100.00;101287.44;5058557;28;20028;-78
2023/05/02 07:17:20;;;;;;;10.20;4.53;;;;;;;12.22;100.00;101294.63;5076015;28;20047;-78
2023/05/02 07:19:45;;;;;;;9.98;4.70;;;;;;;12.37;100.00;101282.59;5041850;28;20512;-78
2023/05/02 07:22:11;;;;;;;7.15;4.25;;;;;;;12.50;100.00;101278.31;5076243;28;20067;-78
2023/05/02 07:24:39;;;;;;;10.70;5.07;;;;;;;12.65;100.00;101289.38;5058101;28;20028;-78
2023/05/02 07:27:05;;;;;;;8.27;4.88;;;;;;;12.79;100.00;101297.06;5075011;28;20024;-78
2023/05/02 07:29:30;;;;;;;8.82;5.68;;;;;;;12.88;100.00;101290.59;5075084;28;20028;-78
2023/05/02 07:31:56;;;;;;;10.32;5.75;;;;;;;13.05;100.00;101292.97;5076322;28;20059;-78
2023/05/02 07:34:21;;;;;;;8.45;4.60;;;;;;;13.21;100.00;101292.84;5075001;28;20048;-79
2023/05/02 07:36:47;;;;;;;9.98;6.57;;;;;;;13.40;100.00;101285.44;5058259;28;20525;-78
2023/05/02 07:39:12;;;;;;;11.90;5.32;;;;;;;13.60;100.00;101290.81;5058203;28;20032;-78
2023/05/02 07:41:37;;;;;;;13.60;6.57;;;;;;;13.86;100.00;101287.72;5076433;28;20028;-78
2023/05/02 07:44:03;;;;;;;8.60;4.72;;;;;;;14.13;100.00;101291.88;5079104;28;20028;-78
2023/05/02 07:46:29;;;;;;;9.75;5.28;;;;;;;14.33;100.00;101290.78;5043811;28;20020;-79
2023/05/02 07:48:54;;;;;;;10.65;5.95;;;;;;;14.52;100.00;101286.88;5078341;28;20058;-78
2023/05/02 07:51:20;;;;;;;9.73;6.30;;;;;;;14.77;100.00;101281.22;5078929;28;20058;-79
2023/05/02 07:53:48;;;;;;;10.73;6.20;;;;;;;14.97;100.00;101278.91;5060182;28;20373;-79
2023/05/02 07:56:14;;;;;;;10.00;6.35;;;;;;;15.17;100.00;101282.50;5033222;28;20485;-79
2023/05/02 07:58:39;;;;;;;8.88;6.07;;;;;;;15.32;100.00;101287.84;5078105;28;20093;-78
2023/05/02 08:01:05;;;;;;;10.23;5.65;;;;;;;15.48;100.00;101285.56;5078477;28;20025;-79
2023/05/02 08:03:30;;;;;;;10.60;6.15;;;;;;;15.65;100.00;101280.19;5075811;28;20439;-79
2023/05/02 08:05:56;;;;;;;10.60;6.45;;;;;;;15.75;100.00;101287.63;5068782;28;20024;-79
2023/05/02 08:08:22;;;;;;;10.27;6.03;;;;;;;15.81;100.00;101289.16;5039113;28;20041;-79
2023/05/02 08:10:49;;;;;;;11.85;7.10;;;;;;;15.97;100.00;101289.69;5058723;28;20032;-79
2023/05/02 08:13:14;;;;;;;12.02;7.30;;;;;;;16.07;100.00;101283.91;5061810;28;20060;-79
2023/05/02 08:15:40;;;;;;;9.75;5.82;;;;;;;16.29;100.00;101285.09;5078398;28;20062;-79
2023/05/02 08:18:05;;;;;;;12.77;7.43;;;;;;;16.43;100.00;101283.09;5061664;28;20028;-79
2023/05/02 08:20:31;;;;;;;11.88;7.07;;;;;;;16.56;100.00;101284.22;5025458;28;20033;-79
2023/05/02 08:22:57;;;;;;;10.52;6.45;;;;;;;16.78;100.00;101277.03;5071660;28;20032;-79
2023/05/02 08:25:22;;;;;;;10.95;6.55;;;;;;;16.95;100.00;101285.56;5058187;28;20035;-79
2023/05/02 08:27:48;;;;;;;8.05;5.40;;;;;;;17.11;100.00;101277.59;5078248;28;20032;-79
2023/05/02 08:30:13;;;;;;;9.88;5.20;;;;;;;17.24;100.00;101276.66;5078209;28;20028;-79
2023/05/02 08:32:39;;;;;;;8.23;4.68;;;;;;;17.47;100.00;101280.31;5061403;28;20029;-79
2023/05/02 08:35:05;;;;;;;7.63;4.90;;;;;;;17.62;100.00;101277.06;5079228;28;20031;-79
2023/05/02 08:37:31;;;;;;;6.60;4.00;;;;;;;17.84;100.00;101275.38;5041409;28;20055;-79
2023/05/02 08:39:56;;;;;;;8.05;4.82;;;;;;;18.00;100.00;101287.00;5054535;28;20020;-79
2023/05/02 08:42:22;;;;;;;7.72;4.35;;;;;;;18.15;100.00;101277.28;5079090;28;20040;-79
2023/05/02 08:44:48;;;;;;;7.50;4.93;;;;;;;18.24;100.00;101275.31;5061305;28;20535;-78
2023/05/02 08:47:13;;;;;;;6.88;4.32;;;;;;;18.43;100.00;101278.66;5076932;28;20103;-79
2023/05/02 08:49:39;;;;;;;7.28;4.47;;;;;;;18.58;100.00;101274.53;5061096;28;20086;-78
2023/05/02 08:52:05;;;;;;;6.03;3.80;;;;;;;18.66;100.00;101270.06;5044433;28;20032;-78
2023/05/02 08:54:31;;;;;;;5.30;3.55;;;;;;;18.81;100.00;101275.25;5032775;28;20033;-79
2023/05/02 08:56:58;;;;;;;4.85;3.67;;;;;;;18.92;100.00;101273.75;5059268;28;20035;-79
2023/05/02 08:59:24;;;;;;;7.72;3.90;;;;;;;19.01;100.00;101270.09;5061210;28;20477;-78
2023/05/02 09:01:54;;;;;;;5.88;3.75;;;;;;;19.20;100.00;101268.59;5036764;28;20048;-79
2023/05/02 09:04:22;;;;;;;4.45;3.42;;;;;;;19.36;100.00;101279.28;5045073;28;20032;-79
2023/05/02 09:06:47;;;;;;;6.43;4.00;;;;;;;19.36;100.00;101271.69;5076248;28;20507;-78
2023/05/02 09:09:13;;;;;;;4.53;3.28;;;;;;;19.52;100.00;101265.50;5078941;28;20028;-78
2023/05/02 09:11:38;;;;;;;4.43;3.13;;;;;;;19.65;100.00;101267.28;5041751;28;20029;-78
2023/05/02 09:14:13;;;;;;;3.58;2.58;;;;;;;19.70;100.00;101272.78;5069902;28;20032;-78
2023/05/02 09:16:39;;;;;;;3.67;2.67;;;;;;;19.85;100.00;101266.56;5027766;28;20035;-78
2023/05/02 09:19:04;;;;;;;3.30;2.08;;;;;;;20.08;100.00;101263.47;5077474;28;20028;-78
2023/05/02 09:21:39;;;;;;;2.70;2.05;;;;;;;20.25;100.00;101262.53;5078758;28;20521;-79
2023/05/02 09:24:17;;;;;;;3.88;2.20;;;;;;;20.35;100.00;101255.69;5078350;28;20028;-78
2023/05/02 09:26:55;;;;;;;3.75;1.75;;;;;;;20.52;100.00;101259.19;5077367;28;20078;-78
2023/05/02 09:29:20;;;;;;;4.15;1.50;;;;;;;20.59;100.00;101252.19;5077375;28;20040;-78
2023/05/02 09:31:46;;;;;;;2.88;2.10;;;;;;;20.65;92.57;101257.31;5077062;28;20385;-78
2023/05/02 09:34:13;;;;;;;2.03;1.30;;;;;;;20.77;95.72;101252.88;5060331;28;20036;-78
2023/05/02 09:36:39;;;;;;;3.47;1.10;;;;;;;20.82;85.15;101252.69;5031948;28;20036;-78
2023/05/02 09:39:16;;;;;;;1.77;1.27;;;;;;;20.94;84.00;101249.91;5026115;28;20078;-78
2023/05/02 09:41:45;;;;;;;4.13;1.27;;;;;;;21.02;85.00;101263.13;5057063;28;20041;-78
2023/05/02 09:44:18;;;;;;;3.55;1.35;;;;;;;21.13;85.69;101258.69;5078314;28;20052;-78
2023/05/02 09:46:48;;;;;;;2.45;1.20;;;;;;;21.12;83.01;101256.22;5080798;28;20060;-78
2023/05/02 09:49:17;;;;;;;3.35;0.90;;;;;;;21.23;79.46;101259.41;5056655;28;20029;-78
2023/05/02 09:51:42;;;;;;;1.95;1.15;;;;;;;21.34;79.74;101254.97;5059946;28;20401;-78
2023/05/02 09:54:08;;;;;;;3.78;1.13;;;;;;;21.34;78.18;101269.09;5051269;28;20021;-76
2023/05/02 09:56:52;;;;;;;2.40;1.15;;;;;;;21.37;77.70;101265.63;5071155;28;20028;-79
2023/05/02 09:59:18;;;;;;;1.77;0.90;;;;;;;21.54;74.74;101261.78;5076796;28;20088;-78
2023/05/02 10:01:43;;;;;;;1.45;0.77;;;;;;;21.63;76.80;101266.13;5075825;28;20397;-78
2023/05/02 10:04:15;;;;;;;5.03;1.05;;;;;;;21.62;75.64;101270.16;5041333;28;20033;-78
2023/05/02 10:06:44;;;;;;;3.83;1.30;;;;;;;21.76;72.79;101258.50;5060273;28;20024;-78
2023/05/02 10:09:10;;;;;;;2.05;1.35;;;;;;;21.81;72.61;101269.59;5059778;28;20033;-78
2023/05/02 10:11:37;;;;;;;2.85;1.05;;;;;;;21.85;72.13;101273.34;5051428;28;20440;-78
2023/05/02 10:14:05;;;;;;;1.92;1.33;;;;;;;21.94;72.41;101267.56;5031065;28;20057;-78
2023/05/02 10:16:31;;;;;;;3.45;1.20;;;;;;;22.03;72.29;101273.94;5074486;28;20052;-78
2023/05/02 10:19:07;;;;;;;3.83;1.05;;;;;;;22.09;70.95;101278.19;5045595;28;20036;-78
2023/05/02 10:21:32;;;;;;;2.67;1.27;;;;;;;22.07;65.93;101276.91;5032687;28;20029;-78
2023/05/02 10:23:59;;;;;;;4.72;1.60;;;;;;;22.02;65.47;101268.63;5067177;28;20083;-78
2023/05/02 10:26:25;;;;;;;2.88;1.55;;;;;;;21.93;67.33;101282.91;5068822;28;20028;-78
2023/05/02 10:28:50;;;;;;;2.42;1.70;;;;;;;21.90;66.79;101277.94;5053316;28;20082;-78
2023/05/02 10:31:17;;;;;;;2.22;1.27;;;;;;;21.92;69.13;101274.75;5073283;28;20059;-78
2023/05/02 10:33:42;;;;;;;3.90;1.70;;;;;;;21.79;68.20;101285.25;5069792;28;20111;-78
2023/05/02 10:36:11;;;;;;;2.55;1.90;;;;;;;21.71;67.31;101289.81;5050305;28;20036;-78
2023/05/02 10:38:37;;;;;;;2.33;1.50;;;;;;;21.52;69.44;101287.53;5038381;28;20032;-78
2023/05/02 10:41:07;;;;;;;3.33;1.60;;;;;;;21.55;71.44;101280.38;5058492;28;20043;-78
2023/05/02 10:43:33;;;;;;;2.38;1.50;;;;;;;21.66;72.02;101280.75;5042279;28;20032;-78
2023/05/02 10:45:59;;;;;;;2.88;1.40;;;;;;;21.70;70.11;101287.34;5075448;28;20035;-78
2023/05/02 10:48:26;;;;;;;3.85;1.63;;;;;;;21.78;68.52;101290.06;5065432;28;20036;-78
2023/05/02 10:50:56;;;;;;;2.78;1.52;;;;;;;21.83;70.66;101291.84;5054157;28;20021;-78
2023/05/02 10:53:26;;;;;;;5.13;1.75;;;;;;;21.91;72.36;101290.91;5020454;28;20477;-78
2023/05/02 10:56:12;;;;;;;5.25;1.85;;;;;;;21.72;68.73;101290.66;5048701;28;20345;-78
2023/05/02 10:58:38;;;;;;;5.40;2.05;;;;;;;21.70;68.11;101285.31;5038945;28;20036;-78
2023/05/02 11:01:29;;;;;;;3.95;1.67;;;;;;;21.74;70.43;101289.13;5058024;28;20052;-78
2023/05/02 11:04:02;;;;;;;4.43;1.63;;;;;;;21.75;70.61;101284.28;5076522;28;20041;-78
2023/05/02 11:06:32;;;;;;;;;;;;;;;21.86;69.50;101274.16;5068043;28;20052;-78
2023/05/02 11:09:16;;;;;;;2.67;1.50;;;;;;;21.87;64.80;101278.66;5075383;28;20296;-78
2023/05/02 11:11:42;;;;;;;1.85;1.02;;;;;;;21.94;65.56;101276.06;5058350;28;20046;-78
2023/05/02 11:14:08;;;;;;;3.50;1.27;;;;;;;21.90;66.92;101280.78;5042062;28;20052;-78